Time;durP1;ratioP1;P1;durP2;ratioP2;P2;SDS_P1;SDS_P2;PMS_P1;PMS_P2;Temp;Humidity;BMP_temperature;BMP_pressure;BME280_temperature;BME280_humidity;BME280_pressure;Samples;Min_cycle;Max_cycle;Signal;HPM_P1;HPM_P2
2021/04/02 00:02:13;;;;;;;19.07;7.57;;;6.00;99.90;;;;;;5054355;28;20201;-82
2021/04/02 00:04:40;;;;;;;18.70;7.00;;;6.00;99.90;;;;;;5054435;28;20256;-78
2021/04/02 00:07:07;;;;;;;16.37;8.00;;;6.00;99.90;;;;;;5054928;28;20214;-80
2021/04/02 00:09:34;;;;;;;14.73;7.47;;;5.90;99.90;;;;;;5054566;28;20220;-82
2021/04/02 00:12:00;;;;;;;23.40;7.40;;;5.90;99.90;;;;;;5054945;28;20300;-83
2021/04/02 00:14:28;;;;;;;13.30;7.73;;;5.80;99.90;;;;;;5055067;28;20327;-80
2021/04/02 00:16:54;;;;;;;17.90;7.00;;;5.80;99.90;;;;;;5054692;28;20209;-81
2021/04/02 00:19:20;;;;;;;13.13;6.93;;;5.80;99.90;;;;;;5054327;28;20304;-83
2021/04/02 00:21:47;;;;;;;15.77;7.07;;;5.70;99.90;;;;;;5054689;28;20277;-83
2021/04/02 00:24:13;;;;;;;17.90;7.43;;;5.70;99.90;;;;;;5054655;28;20312;-84
2021/04/02 00:26:40;;;;;;;17.43;7.23;;;5.70;99.90;;;;;;5054179;28;20193;-82
2021/04/02 00:29:07;;;;;;;18.90;7.40;;;5.70;99.90;;;;;;5054439;28;20276;-83
2021/04/02 00:31:34;;;;;;;17.40;7.63;;;5.70;99.90;;;;;;5054098;28;20724;-82
2021/04/02 00:34:02;;;;;;;16.40;7.20;;;5.70;99.90;;;;;;5054634;28;20244;-80
2021/04/02 00:36:28;;;;;;;16.90;7.40;;;5.60;99.90;;;;;;5053974;28;20615;-83
2021/04/02 00:38:55;;;;;;;22.60;8.13;;;5.60;99.90;;;;;;5054554;28;20542;-81
2021/04/02 00:41:22;;;;;;;18.40;7.37;;;5.50;99.90;;;;;;5053856;28;20676;-80
2021/04/02 00:43:50;;;;;;;17.90;7.80;;;5.40;99.90;;;;;;5054587;28;20228;-79
2021/04/02 00:46:18;;;;;;;18.73;7.93;;;5.40;99.90;;;;;;5054217;28;20223;-81
2021/04/02 00:48:47;;;;;;;22.20;8.33;;;5.40;99.90;;;;;;5054244;28;20228;-82
2021/04/02 00:51:18;;;;;;;20.20;8.10;;;5.40;99.90;;;;;;5054149;28;20251;-81
2021/04/02 00:53:45;;;;;;;14.20;7.83;;;5.40;99.90;;;;;;5053790;28;20284;-81
2021/04/02 00:56:13;;;;;;;21.63;8.13;;;5.30;99.90;;;;;;5054060;28;20262;-81
2021/04/02 00:58:41;;;;;;;21.13;8.50;;;5.30;99.90;;;;;;5054165;28;20241;-83
2021/04/02 01:01:10;;;;;;;19.67;7.83;;;5.30;99.90;;;;;;5054498;28;20201;-82
2021/04/02 01:03:37;;;;;;;21.63;8.40;;;5.20;99.90;;;;;;5053508;28;20593;-83
2021/04/02 01:06:07;;;;;;;17.30;8.47;;;5.20;99.90;;;;;;5053591;28;20604;-84
2021/04/02 01:08:35;;;;;;;18.23;8.67;;;5.10;99.90;;;;;;5053411;28;20204;-81
2021/04/02 01:11:04;;;;;;;16.87;8.60;;;5.10;99.90;;;;;;5053851;28;20194;-81
2021/04/02 01:13:36;;;;;;;21.30;8.93;;;5.20;99.90;;;;;;5053366;28;20198;-81
2021/04/02 01:16:09;;;;;;;21.27;8.70;;;5.20;99.90;;;;;;5053848;28;20223;-81
2021/04/02 01:18:39;;;;;;;21.27;8.10;;;5.10;99.90;;;;;;5053611;28;20292;-81
2021/04/02 01:21:13;;;;;;;22.53;8.80;;;5.10;99.90;;;;;;5053320;28;20284;-81
2021/04/02 01:23:46;;;;;;;23.67;8.30;;;5.00;99.90;;;;;;5053338;28;20658;-82
2021/04/02 01:26:23;;;;;;;16.73;8.83;;;5.00;99.90;;;;;;5053375;28;20654;-80
2021/04/02 01:29:02;;;;;;;20.47;8.17;;;5.00;99.90;;;;;;5052496;28;20240;-79
2021/04/02 01:31:30;;;;;;;16.70;8.47;;;4.90;99.90;;;;;;5051820;28;20287;-82
2021/04/02 01:33:58;;;;;;;26.63;8.63;;;4.90;99.90;;;;;;5052884;28;20766;-83
2021/04/02 01:36:26;;;;;;;21.97;8.20;;;4.90;99.90;;;;;;5053446;28;20197;-82
2021/04/02 01:38:54;;;;;;;19.27;8.70;;;4.80;99.90;;;;;;5053093;28;20281;-83
2021/04/02 01:41:23;;;;;;;20.10;9.20;;;4.80;99.90;;;;;;5052925;28;20212;-81
2021/04/02 01:43:53;;;;;;;21.77;9.30;;;4.80;99.90;;;;;;5052900;28;20205;-79
2021/04/02 01:46:22;;;;;;;25.37;8.83;;;4.80;99.90;;;;;;5052736;28;20251;-81
2021/04/02 01:48:53;;;;;;;19.77;8.60;;;4.80;99.90;;;;;;5053449;28;20235;-80
2021/04/02 01:51:21;;;;;;;17.20;8.43;;;4.80;99.90;;;;;;5052359;28;20292;-82
2021/04/02 01:53:50;;;;;;;22.80;9.30;;;4.70;99.90;;;;;;5052993;28;20212;-79
2021/04/02 01:56:17;;;;;;;24.70;8.77;;;4.70;99.90;;;;;;5052488;28;20204;-80
2021/04/02 01:58:45;;;;;;;22.53;9.40;;;4.70;99.90;;;;;;5052423;28;20296;-82
2021/04/02 02:01:13;;;;;;;22.53;8.40;;;4.70;99.90;;;;;;5051439;28;20615;-81
2021/04/02 02:03:46;;;;;;;24.77;10.03;;;4.60;99.90;;;;;;5052515;28;20593;-83
2021/04/02 02:06:13;;;;;;;27.77;9.80;;;4.60;99.90;;;;;;5048140;28;20556;-83
2021/04/02 02:08:42;;;;;;;18.20;8.33;;;4.50;99.90;;;;;;5052904;28;20304;-81
2021/04/02 02:11:10;;;;;;;27.47;9.53;;;4.60;99.90;;;;;;5052353;28;20298;-81
2021/04/02 02:13:39;;;;;;;26.83;9.67;;;4.50;99.90;;;;;;5052482;28;20285;-80
2021/04/02 02:16:08;;;;;;;19.73;9.63;;;4.50;99.90;;;;;;5053088;28;20244;-79
2021/04/02 02:18:37;;;;;;;25.07;10.07;;;4.50;99.90;;;;;;5052382;28;20239;-80
2021/04/02 02:21:07;;;;;;;20.50;9.43;;;4.40;99.90;;;;;;5052557;28;20210;-83
2021/04/02 02:23:34;;;;;;;28.97;9.80;;;4.50;99.90;;;;;;5052868;28;20205;-82
2021/04/02 02:26:01;;;;;;;24.23;8.97;;;4.40;99.90;;;;;;5052700;28;20346;-81
2021/04/02 02:28:27;;;;;;;28.37;9.67;;;4.50;99.90;;;;;;5052764;28;20202;-80
2021/04/02 02:30:54;;;;;;;24.23;10.17;;;4.50;99.90;;;;;;5052601;28;20205;-83
2021/04/02 02:33:20;;;;;;;24.47;9.43;;;4.60;99.90;;;;;;5052372;28;20284;-81
2021/04/02 02:35:47;;;;;;;23.73;9.57;;;4.70;99.90;;;;;;5052585;28;20236;-80
2021/04/02 02:38:15;;;;;;;25.33;9.37;;;4.60;99.90;;;;;;5052138;28;20214;-78
2021/04/02 02:40:41;;;;;;;28.00;9.27;;;4.70;99.90;;;;;;5053708;28;20797;-80
2021/04/02 02:43:08;;;;;;;25.20;8.83;;;4.60;99.90;;;;;;5056329;28;20276;-79
2021/04/02 02:45:35;;;;;;;27.90;9.83;;;4.50;99.90;;;;;;5056051;28;20309;-82
2021/04/02 02:48:02;;;;;;;21.93;9.47;;;4.50;99.90;;;;;;5056291;28;20200;-82
2021/04/02 02:50:31;;;;;;;26.07;10.07;;;4.50;99.90;;;;;;5056146;28;20217;-79
2021/04/02 02:52:58;;;;;;;27.67;9.43;;;4.60;99.90;;;;;;5056244;28;20205;-80
2021/04/02 02:55:29;;;;;;;24.60;9.70;;;4.50;99.90;;;;;;5056185;28;20220;-80
2021/04/02 02:57:57;;;;;;;26.67;8.87;;;4.50;99.90;;;;;;5056454;28;20679;-82
2021/04/02 03:00:26;;;;;;;23.80;8.73;;;4.50;99.90;;;;;;5055753;28;20233;-79
2021/04/02 03:02:56;;;;;;;24.70;9.17;;;4.50;99.90;;;;;;5055958;28;20619;-80
2021/04/02 03:05:25;;;;;;;30.00;9.60;;;4.40;99.90;;;;;;5055315;28;20713;-81
2021/04/02 03:07:55;;;;;;;24.90;8.43;;;4.30;99.90;;;;;;5055977;28;20215;-78
2021/04/02 03:10:22;;;;;;;25.57;9.20;;;4.20;99.90;;;;;;5055613;28;20221;-80
2021/04/02 03:12:50;;;;;;;26.13;9.33;;;4.30;99.90;;;;;;5055505;28;20531;-78
2021/04/02 03:15:19;;;;;;;24.70;9.07;;;4.20;99.90;;;;;;5056113;28;20288;-78
2021/04/02 03:17:50;;;;;;;24.37;8.77;;;4.20;99.90;;;;;;5055842;28;20596;-80
2021/04/02 03:20:18;;;;;;;21.63;8.03;;;4.10;99.90;;;;;;5055851;28;20231;-79
2021/04/02 03:22:45;;;;;;;21.30;8.53;;;4.00;99.90;;;;;;5055755;28;20405;-81
2021/04/02 03:25:14;;;;;;;26.30;10.30;;;4.00;99.90;;;;;;5055748;28;20221;-79
2021/04/02 03:27:42;;;;;;;27.03;10.17;;;4.00;99.90;;;;;;5055164;28;20656;-81
2021/04/02 03:30:12;;;;;;;26.40;9.73;;;4.00;99.90;;;;;;5055783;28;20219;-78
2021/04/02 03:32:44;;;;;;;24.30;9.33;;;4.00;99.90;;;;;;5054795;28;20667;-81
2021/04/02 03:35:12;;;;;;;28.57;9.73;;;4.00;99.90;;;;;;5055194;28;20686;-80
2021/04/02 03:37:41;;;;;;;23.93;9.00;;;3.90;99.90;;;;;;5055232;28;20242;-82
2021/04/02 03:40:13;;;;;;;30.13;9.17;;;4.00;99.90;;;;;;5054976;28;20624;-81
2021/04/02 03:42:41;;;;;;;28.83;9.17;;;4.00;99.90;;;;;;5055745;28;20239;-82
2021/04/02 03:45:11;;;;;;;19.83;8.90;;;3.90;99.90;;;;;;5055431;28;20738;-81
2021/04/02 03:47:39;;;;;;;19.23;8.87;;;3.90;99.90;;;;;;5038240;28;20279;-82
2021/04/02 03:50:10;;;;;;;20.20;9.17;;;3.80;99.90;;;;;;5055207;28;20297;-81
2021/04/02 03:52:40;;;;;;;25.97;8.57;;;3.80;99.90;;;;;;5054560;28;20285;-80
2021/04/02 03:55:09;;;;;;;20.27;9.00;;;3.80;99.90;;;;;;5054992;28;20599;-81
2021/04/02 03:57:39;;;;;;;26.07;9.13;;;3.80;99.90;;;;;;5054626;28;20287;-81
2021/04/02 04:00:13;;;;;;;17.30;8.27;;;3.70;99.90;;;;;;5055095;28;20259;-81
2021/04/02 04:02:42;;;;;;;29.80;9.47;;;3.70;99.90;;;;;;5054586;28;20262;-80
2021/04/02 04:05:10;;;;;;;24.20;9.30;;;3.70;99.90;;;;;;5054499;28;20613;-80
2021/04/02 04:07:37;;;;;;;28.33;9.03;;;3.70;99.90;;;;;;5054595;28;20212;-81
2021/04/02 04:10:04;;;;;;;21.33;8.47;;;3.70;99.90;;;;;;5054853;28;20264;-81
2021/04/02 04:12:32;;;;;;;20.00;7.97;;;3.70;99.90;;;;;;5054012;28;20204;-81
2021/04/02 04:15:00;;;;;;;22.40;8.93;;;3.80;99.90;;;;;;5054784;28;20201;-81
2021/04/02 04:17:27;;;;;;;21.50;8.60;;;3.80;99.90;;;;;;5054444;28;20200;-79
2021/04/02 04:19:54;;;;;;;20.93;7.83;;;3.70;99.90;;;;;;5054624;28;20190;-81
2021/04/02 04:22:24;;;;;;;23.63;7.87;;;3.70;99.90;;;;;;5054411;28;20292;-80
2021/04/02 04:24:52;;;;;;;26.57;8.47;;;3.70;99.90;;;;;;5040481;28;20271;-80
2021/04/02 04:27:18;;;;;;;23.27;8.87;;;3.70;99.90;;;;;;5054396;28;20300;-79
2021/04/02 04:29:50;;;;;;;21.73;8.13;;;3.70;99.90;;;;;;5054696;28;20681;-79
2021/04/02 04:32:19;;;;;;;20.90;7.83;;;3.60;99.90;;;;;;5054298;28;20550;-80
2021/04/02 04:34:49;;;;;;;24.13;8.10;;;3.50;99.90;;;;;;5054882;28;20284;-80
2021/04/02 04:37:18;;;;;;;21.60;7.97;;;3.50;99.90;;;;;;5054961;28;20200;-80
2021/04/02 04:39:46;;;;;;;20.13;7.67;;;3.50;99.90;;;;;;5051739;28;20291;-80
2021/04/02 04:42:15;;;;;;;22.53;8.13;;;3.50;99.90;;;;;;5055370;28;20201;-77
2021/04/02 04:44:43;;;;;;;16.03;7.00;;;3.50;99.90;;;;;;5054655;28;20217;-80
2021/04/02 04:47:09;;;;;;;19.40;7.23;;;3.50;99.90;;;;;;5055424;28;20284;-80
2021/04/02 04:49:36;;;;;;;22.60;7.87;;;3.50;99.90;;;;;;5055221;28;20289;-80
2021/04/02 04:52:06;;;;;;;19.60;8.00;;;3.50;99.90;;;;;;5040820;28;20606;-80
2021/04/02 04:54:34;;;;;;;20.73;7.53;;;3.50;99.90;;;;;;5055086;28;20292;-78
2021/04/02 04:57:01;;;;;;;23.00;7.37;;;3.50;99.90;;;;;;5057945;28;20256;-78
2021/04/02 04:59:28;;;;;;;20.40;8.10;;;3.50;99.90;;;;;;5075614;28;20239;-75
2021/04/02 05:01:56;;;;;;;19.43;7.60;;;3.40;99.90;;;;;;5076801;28;20246;-77
2021/04/02 05:04:24;;;;;;;23.67;7.70;;;3.50;99.90;;;;;;5076044;28;20284;-78
2021/04/02 05:06:56;;;;;;;16.73;6.93;;;3.60;99.90;;;;;;5077651;28;20225;-77
2021/04/02 05:09:25;;;;;;;19.53;7.33;;;3.60;99.90;;;;;;5075860;28;20196;-78
2021/04/02 05:11:53;;;;;;;19.27;6.87;;;3.60;99.90;;;;;;5077406;28;20208;-77
2021/04/02 05:14:20;;;;;;;25.73;7.77;;;3.60;99.90;;;;;;5076727;28;20194;-78
2021/04/02 05:16:48;;;;;;;19.13;6.77;;;3.60;99.90;;;;;;5076587;28;20184;-77
2021/04/02 05:19:17;;;;;;;17.20;6.50;;;3.60;99.90;;;;;;5072851;28;20206;-79
2021/04/02 05:21:44;;;;;;;16.23;7.10;;;3.50;99.90;;;;;;5052132;28;20197;-80
2021/04/02 05:24:12;;;;;;;15.57;6.40;;;3.50;99.90;;;;;;5053867;28;20715;-79
2021/04/02 05:26:40;;;;;;;17.33;6.27;;;3.40;99.90;;;;;;5053632;28;20198;-79
2021/04/02 05:29:06;;;;;;;17.57;7.03;;;3.50;99.90;;;;;;5052509;28;20203;-79
2021/04/02 05:31:33;;;;;;;16.10;7.17;;;3.50;99.90;;;;;;5052294;28;21117;-80
2021/04/02 05:34:00;;;;;;;16.13;6.43;;;3.50;99.90;;;;;;5053526;28;20190;-78
2021/04/02 05:36:27;;;;;;;16.80;6.60;;;3.50;99.90;;;;;;5052201;28;20193;-78
2021/04/02 05:38:53;;;;;;;19.40;6.93;;;3.50;99.90;;;;;;5051865;28;20292;-79
2021/04/02 05:41:23;;;;;;;23.30;6.97;;;3.50;99.90;;;;;;5050260;28;20245;-80
2021/04/02 05:43:55;;;;;;;23.37;6.50;;;3.50;99.90;;;;;;5048958;28;20205;-78
2021/04/02 05:46:25;;;;;;;20.63;6.80;;;3.60;99.90;;;;;;5052149;28;20723;-78
2021/04/02 05:49:02;;;;;;;13.47;6.00;;;3.60;99.90;;;;;;5052686;28;20199;-80
2021/04/02 05:51:29;;;;;;;19.23;6.23;;;3.70;99.90;;;;;;5052778;28;20189;-80
2021/04/02 05:53:56;;;;;;;13.10;6.47;;;3.70;99.90;;;;;;5052891;28;20210;-80
2021/04/02 05:56:23;;;;;;;14.80;6.17;;;3.80;99.90;;;;;;5051033;28;20206;-79
2021/04/02 05:58:50;;;;;;;20.53;6.90;;;3.80;99.90;;;;;;5052324;28;20552;-78
2021/04/02 06:01:19;;;;;;;23.50;6.17;;;3.80;99.90;;;;;;5050688;28;20193;-81
2021/04/02 06:03:46;;;;;;;17.83;6.53;;;3.90;99.90;;;;;;5051408;28;20235;-79
2021/04/02 06:06:13;;;;;;;19.87;6.40;;;4.10;99.90;;;;;;5052152;28;20300;-80
2021/04/02 06:08:42;;;;;;;14.97;6.53;;;4.10;99.90;;;;;;5051238;28;20212;-78
2021/04/02 06:11:09;;;;;;;13.97;5.87;;;4.20;99.90;;;;;;5048228;28;20587;-79
2021/04/02 06:13:35;;;;;;;15.13;6.17;;;4.20;99.90;;;;;;5054775;28;20234;-81
2021/04/02 06:16:02;;;;;;;18.13;6.13;;;4.20;99.90;;;;;;5054976;28;20304;-81
2021/04/02 06:18:29;;;;;;;19.93;6.00;;;4.30;99.90;;;;;;5045217;28;20212;-80
2021/04/02 06:20:56;;;;;;;17.23;5.53;;;4.30;99.90;;;;;;5052698;28;20607;-79
2021/04/02 06:23:24;;;;;;;10.33;5.10;;;4.40;99.90;;;;;;5048677;28;20606;-82
2021/04/02 06:25:52;;;;;;;14.13;4.57;;;4.50;99.90;;;;;;5049527;28;20228;-80
2021/04/02 06:28:22;;;;;;;14.67;4.97;;;4.50;99.90;;;;;;5053992;28;20226;-81
2021/04/02 06:30:56;;;;;;;11.67;5.33;;;4.50;99.90;;;;;;5056048;28;20276;-79
2021/04/02 06:33:31;;;;;;;17.10;5.50;;;4.50;99.90;;;;;;5056046;28;20218;-81
2021/04/02 06:35:58;;;;;;;18.17;4.90;;;4.70;99.90;;;;;;5047706;28;20663;-79
2021/04/02 06:38:32;;;;;;;12.00;5.20;;;4.90;99.90;;;;;;5049355;28;20231;-78
2021/04/02 06:41:00;;;;;;;16.97;5.23;;;5.00;99.90;;;;;;5053355;28;20194;-80
2021/04/02 06:43:44;;;;;;;21.17;5.13;;;5.10;99.90;;;;;;5047835;28;20290;-80
2021/04/02 06:46:12;;;;;;;14.47;5.23;;;5.20;99.90;;;;;;5044316;28;20763;-80
2021/04/02 06:48:40;;;;;;;9.13;4.30;;;5.40;99.90;;;;;;5039725;28;20244;-83
2021/04/02 06:51:14;;;;;;;50.93;21.10;;;5.50;99.90;;;;;;5046352;28;20522;-78
2021/04/02 06:53:43;;;;;;;16.67;5.50;;;5.70;99.90;;;;;;5043313;28;20217;-80
2021/04/02 06:56:11;;;;;;;12.10;4.27;;;5.70;99.90;;;;;;5046269;28;20202;-78
2021/04/02 06:58:39;;;;;;;10.67;4.20;;;5.70;99.90;;;;;;5046554;28;20217;-80
2021/04/02 07:01:06;;;;;;;13.20;4.50;;;5.80;99.90;;;;;;5042675;28;20295;-78
2021/04/02 07:03:34;;;;;;;12.00;4.30;;;6.00;99.90;;;;;;5045550;28;20276;-80
2021/04/02 07:06:03;;;;;;;11.83;4.50;;;6.20;99.90;;;;;;5044198;28;20690;-82
2021/04/02 07:08:31;;;;;;;15.40;4.17;;;6.10;99.90;;;;;;5037847;28;20785;-79
2021/04/02 07:10:58;;;;;;;14.10;4.30;;;6.00;99.90;;;;;;5048651;28;20732;-79
2021/04/02 07:13:26;;;;;;;13.90;4.13;;;6.10;99.90;;;;;;5050584;28;20277;-76
2021/04/02 07:15:52;;;;;;;11.47;4.30;;;6.20;99.90;;;;;;5051832;28;20235;-78
2021/04/02 07:18:19;;;;;;;9.80;3.60;;;6.50;99.90;;;;;;5051988;28;20224;-78
2021/04/02 07:20:48;;;;;;;8.63;3.50;;;6.60;99.90;;;;;;5053654;28;20190;-78
2021/04/02 07:23:16;;;;;;;10.17;3.13;;;6.70;99.90;;;;;;5054211;28;21390;-79
2021/04/02 07:25:43;;;;;;;11.80;3.70;;;6.80;99.90;;;;;;5053463;28;20308;-81
2021/04/02 07:28:10;;;;;;;13.13;3.77;;;6.90;99.90;;;;;;5052764;28;20213;-80
2021/04/02 07:30:38;;;;;;;11.83;3.07;;;6.80;99.90;;;;;;5054806;28;20738;-79
2021/04/02 07:33:07;;;;;;;12.37;3.60;;;6.70;99.90;;;;;;5052984;28;20195;-80
2021/04/02 07:35:36;;;;;;;9.50;3.97;;;6.60;99.90;;;;;;5054597;28;20279;-81
2021/04/02 07:38:04;;;;;;;9.70;3.57;;;6.60;99.90;;;;;;5052938;28;20638;-81
2021/04/02 07:40:34;;;;;;;14.23;3.70;;;6.60;99.90;;;;;;5052373;28;20193;-79
2021/04/02 07:43:07;;;;;;;13.13;3.83;;;6.60;99.90;;;;;;5055509;28;20288;-79
2021/04/02 07:45:35;;;;;;;14.10;4.13;;;6.90;99.90;;;;;;5053815;28;20302;-78
2021/04/02 07:48:13;;;;;;;13.70;3.43;;;7.30;99.90;;;;;;5052771;28;20201;-79
2021/04/02 07:50:42;;;;;;;6.17;3.13;;;7.40;99.90;;;;;;5053526;28;20288;-82
2021/04/02 07:53:19;;;;;;;15.13;3.43;;;7.50;99.90;;;;;;5053188;28;20903;-79
2021/04/02 07:55:55;;;;;;;11.80;3.33;;;7.80;99.90;;;;;;5052811;28;20230;-79
2021/04/02 07:58:25;;;;;;;12.80;3.47;;;7.80;99.90;;;;;;5052406;28;20529;-79
2021/04/02 08:00:54;;;;;;;8.63;3.13;;;7.60;99.90;;;;;;5055328;28;20277;-77
2021/04/02 08:03:23;;;;;;;12.93;3.63;;;7.60;99.90;;;;;;5053483;28;20534;-79
2021/04/02 08:06:01;;;;;;;6.40;3.20;;;7.90;99.90;;;;;;5051874;28;20230;-78
2021/04/02 08:08:39;;;;;;;9.03;2.80;;;8.00;99.90;;;;;;5052918;28;20188;-76
2021/04/02 08:11:09;;;;;;;10.07;3.43;;;7.80;99.90;;;;;;5047831;28;20687;-80
2021/04/02 08:13:53;;;;;;;8.47;3.50;;;8.00;99.90;;;;;;5053702;28;20240;-79
2021/04/02 08:16:40;;;;;;;9.57;3.10;;;8.30;99.90;;;;;;5049682;28;20234;-80
2021/04/02 08:19:09;;;;;;;7.03;2.80;;;8.30;99.90;;;;;;5054141;28;20236;-80
2021/04/02 08:21:36;;;;;;;10.57;3.73;;;8.50;99.90;;;;;;5051300;28;20623;-81
2021/04/02 08:24:04;;;;;;;13.33;3.17;;;8.70;99.90;;;;;;5051176;28;20273;-81
2021/04/02 08:26:31;;;;;;;6.43;2.60;;;8.70;99.90;;;;;;5044305;28;20685;-83
2021/04/02 08:28:59;;;;;;;10.93;3.10;;;8.50;99.90;;;;;;5056243;28;20194;-81
2021/04/02 08:31:26;;;;;;;8.40;2.20;;;8.30;99.90;;;;;;5056293;28;20577;-81
2021/04/02 08:33:53;;;;;;;13.23;2.80;;;8.20;99.90;;;;;;5050395;28;20212;-81
2021/04/02 08:36:20;;;;;;;8.50;2.93;;;8.00;99.90;;;;;;5042955;28;20297;-80
2021/04/02 08:38:47;;;;;;;7.27;2.77;;;7.80;99.90;;;;;;5044160;28;20214;-84
2021/04/02 08:41:18;;;;;;;9.07;2.83;;;7.70;99.90;;;;;;5054419;28;20268;-80
2021/04/02 08:43:45;;;;;;;7.67;2.33;;;7.70;99.90;;;;;;5063736;28;20226;-80
2021/04/02 08:46:15;;;;;;;14.00;3.00;;;7.70;99.90;;;;;;5053395;28;20243;-81
2021/04/02 08:48:44;;;;;;;14.20;2.80;;;7.70;99.90;;;;;;5059193;28;20280;-81
2021/04/02 08:51:18;;;;;;;7.30;2.53;;;8.20;99.90;;;;;;5057987;28;20252;-81
2021/04/02 08:53:45;;;;;;;6.77;3.10;;;8.60;99.90;;;;;;5053973;28;20283;-80
2021/04/02 08:56:16;;;;;;;7.67;2.60;;;8.50;99.90;;;;;;5052611;28;20207;-80
2021/04/02 08:58:43;;;;;;;5.17;2.20;;;8.80;99.90;;;;;;5047610;28;20281;-79
2021/04/02 09:01:13;;;;;;;9.53;2.30;;;9.10;99.90;;;;;;5047553;28;20654;-81
2021/04/02 09:03:40;;;;;;;8.33;2.30;;;9.10;99.90;;;;;;5046404;28;20218;-80
2021/04/02 09:06:07;;;;;;;6.97;2.20;;;9.30;99.90;;;;;;5045206;28;20246;-80
2021/04/02 09:08:34;;;;;;;9.30;2.37;;;9.60;99.90;;;;;;5048034;28;20237;-81
2021/04/02 09:11:01;;;;;;;9.40;2.30;;;10.70;99.90;;;;;;5047162;28;20628;-80
2021/04/02 09:13:28;;;;;;;5.47;1.90;;;11.30;99.90;;;;;;5048401;28;20272;-77
2021/04/02 09:15:55;;;;;;;7.43;2.20;;;12.10;99.90;;;;;;5053228;28;20217;-78
2021/04/02 09:18:28;;;;;;;6.90;2.37;;;12.60;99.90;;;;;;5047582;28;20203;-82
2021/04/02 09:20:56;;;;;;;10.13;2.10;;;12.80;99.90;;;;;;5046853;28;20205;-79
2021/04/02 09:23:24;;;;;;;10.53;2.23;;;13.20;99.90;;;;;;5044543;28;20269;-78
2021/04/02 09:25:51;;;;;;;11.30;2.13;;;13.90;99.90;;;;;;5040860;28;20624;-81
2021/04/02 09:28:22;;;;;;;7.67;1.90;;;14.70;99.90;;;;;;5049265;28;20200;-82
2021/04/02 09:30:49;;;;;;;7.77;1.90;;;13.80;99.90;;;;;;5045844;28;20208;-84
2021/04/02 09:33:19;;;;;;;7.47;2.10;;;13.10;99.90;;;;;;5036220;28;20223;-77
2021/04/02 09:35:48;;;;;;;7.77;1.70;;;12.70;99.90;;;;;;5041845;28;20326;-77
2021/04/02 09:38:15;;;;;;;4.27;1.70;;;12.30;99.90;;;;;;5047900;28;20187;-80
2021/04/02 09:40:45;;;;;;;8.30;2.23;;;13.00;99.90;;;;;;5050133;28;20655;-78
2021/04/02 09:43:12;;;;;;;10.63;2.00;;;13.10;99.90;;;;;;5048802;28;20192;-77
2021/04/02 09:45:39;;;;;;;7.87;2.00;;;13.20;99.90;;;;;;5050011;28;20640;-79
2021/04/02 09:48:20;;;;;;;4.63;1.50;;;13.50;99.90;;;;;;5050576;28;20218;-77
2021/04/02 09:50:48;;;;;;;6.70;2.03;;;12.80;99.90;;;;;;5045263;28;20222;-79
2021/04/02 09:53:15;;;;;;;8.93;1.97;;;12.50;99.90;;;;;;5050225;28;20754;-81
2021/04/02 09:55:41;;;;;;;9.30;2.00;;;12.60;99.90;;;;;;5048467;28;20633;-79
2021/04/02 09:58:08;;;;;;;6.87;1.60;;;13.70;99.90;;;;;;5049181;28;20205;-80
2021/04/02 10:00:35;;;;;;;5.87;2.20;;;13.90;99.90;;;;;;5050434;28;20196;-79
2021/04/02 10:03:10;;;;;;;8.03;1.90;;;13.00;99.90;;;;;;5049792;28;20289;-78
2021/04/02 10:05:36;;;;;;;6.57;1.70;;;11.40;99.90;;;;;;5048772;28;20229;-78
2021/04/02 10:08:05;;;;;;;6.83;1.93;;;10.50;99.90;;;;;;5050200;28;20191;-82
2021/04/02 10:10:31;;;;;;;6.70;2.00;;;10.50;99.90;;;;;;5050782;28;20196;-81
2021/04/02 10:12:57;;;;;;;6.97;2.10;;;10.30;99.90;;;;;;5048481;28;20260;-82
2021/04/02 10:15:24;;;;;;;7.43;1.90;;;10.20;99.90;;;;;;5050771;28;20281;-82
2021/04/02 10:17:50;;;;;;;6.50;1.90;;;10.20;99.90;;;;;;5050943;28;20213;-83
2021/04/02 10:20:18;;;;;;;8.07;2.00;;;10.20;99.90;;;;;;5049612;28;20206;-82
2021/04/02 10:22:44;;;;;;;8.50;2.07;;;10.60;99.90;;;;;;5050922;28;20712;-81
2021/04/02 10:25:12;;;;;;;8.47;2.00;;;11.10;99.90;;;;;;5051008;28;20291;-80
2021/04/02 10:27:38;;;;;;;8.27;2.07;;;10.70;99.90;;;;;;5050922;28;20194;-79
2021/04/02 10:30:06;;;;;;;8.00;2.13;;;11.00;99.90;;;;;;5050576;28;20229;-80
2021/04/02 10:32:34;;;;;;;5.33;1.77;;;12.40;99.90;;;;;;5050454;28;20293;-79
2021/04/02 10:35:00;;;;;;;9.17;2.03;;;13.20;99.90;;;;;;5045544;28;20272;-80
2021/04/02 10:37:27;;;;;;;4.80;1.60;;;14.20;99.90;;;;;;5047230;28;20200;-79
2021/04/02 10:39:54;;;;;;;9.73;1.60;;;15.30;99.90;;;;;;5049241;28;20275;-81
2021/04/02 10:42:21;;;;;;;8.20;1.93;;;14.20;99.90;;;;;;5049890;28;20200;-81
2021/04/02 10:44:48;;;;;;;10.57;2.50;;;12.80;99.90;;;;;;5050882;28;20220;-79
2021/04/02 10:47:14;;;;;;;11.00;2.50;;;12.10;99.90;;;;;;5050379;28;20203;-81
2021/04/02 10:49:41;;;;;;;7.00;1.90;;;11.60;99.90;;;;;;5049496;28;20858;-80
2021/04/02 10:52:08;;;;;;;6.93;1.73;;;11.40;99.90;;;;;;5051289;28;20192;-78
2021/04/02 10:54:34;;;;;;;7.20;1.77;;;12.70;99.90;;;;;;5051560;28;20881;-79
2021/04/02 10:57:01;;;;;;;6.67;1.93;;;13.10;99.90;;;;;;5050517;28;20303;-81
2021/04/02 10:59:28;;;;;;;6.20;1.73;;;13.70;99.90;;;;;;5051274;28;20537;-81
2021/04/02 11:01:54;;;;;;;9.07;2.13;;;13.10;99.90;;;;;;5056313;28;20258;-78
2021/04/02 11:04:21;;;;;;;7.47;2.07;;;12.20;99.90;;;;;;5053832;28;20284;-80
2021/04/02 11:06:47;;;;;;;8.07;2.40;;;11.50;99.90;;;;;;5050407;28;20764;-79
2021/04/02 11:09:14;;;;;;;5.40;1.73;;;11.40;99.90;;;;;;5046803;28;20286;-81
2021/04/02 11:11:40;;;;;;;5.20;1.97;;;11.10;99.90;;;;;;5056020;28;20282;-80
2021/04/02 11:14:07;;;;;;;4.37;1.67;;;10.80;99.90;;;;;;5055258;28;20631;-79
2021/04/02 11:16:34;;;;;;;5.70;1.70;;;10.20;99.90;;;;;;5054015;28;20192;-79
2021/04/02 11:19:00;;;;;;;7.23;1.90;;;11.20;99.90;;;;;;5064705;28;20720;-81
2021/04/02 11:21:27;;;;;;;6.87;2.13;;;12.20;99.90;;;;;;5074053;28;20222;-80
2021/04/02 11:23:53;;;;;;;7.93;2.40;;;12.80;99.90;;;;;;5075255;28;20214;-79
2021/04/02 11:26:21;;;;;;;5.87;1.80;;;12.90;99.90;;;;;;5076253;28;20252;-80
2021/04/02 11:28:48;;;;;;;5.77;2.23;;;13.00;99.90;;;;;;5077260;28;20203;-80
2021/04/02 11:31:14;;;;;;;8.67;2.17;;;14.00;99.90;;;;;;5075805;28;20210;-81
2021/04/02 11:33:41;;;;;;;10.90;2.23;;;13.60;99.90;;;;;;5076801;28;20309;-82
2021/04/02 11:36:08;;;;;;;9.00;2.50;;;13.00;99.90;;;;;;5060439;28;20230;-80
2021/04/02 11:38:36;;;;;;;10.20;2.60;;;12.80;99.90;;;;;;5055031;28;20257;-81
2021/04/02 11:41:02;;;;;;;3.60;1.90;;;13.40;99.90;;;;;;5051318;28;20556;-81
2021/04/02 11:43:29;;;;;;;6.90;2.50;;;13.80;99.90;;;;;;5052758;28;20717;-83
2021/04/02 11:45:55;;;;;;;8.70;2.50;;;13.40;99.90;;;;;;5049365;28;20582;-82
2021/04/02 11:48:21;;;;;;;9.93;2.50;;;12.90;99.90;;;;;;5052293;28;20222;-84
2021/04/02 11:50:49;;;;;;;11.27;2.50;;;12.30;99.90;;;;;;5052515;28;20265;-83
2021/04/02 11:53:15;;;;;;;12.40;2.60;;;12.30;99.90;;;;;;5053707;28;20228;-81
2021/04/02 11:55:42;;;;;;;13.70;2.60;;;12.70;99.90;;;;;;5049492;28;20192;-85
2021/04/02 11:58:08;;;;;;;8.40;2.30;;;12.60;99.90;;;;;;5056875;28;20653;-82
2021/04/02 12:00:35;;;;;;;6.70;2.33;;;12.30;99.90;;;;;;5053343;28;20292;-81
2021/04/02 12:03:01;;;;;;;9.07;2.63;;;12.20;99.90;;;;;;5053482;28;20287;-81
2021/04/02 12:05:28;;;;;;;14.10;2.60;;;11.70;99.90;;;;;;5053606;28;20290;-82
2021/04/02 12:07:55;;;;;;;11.67;2.90;;;12.20;99.90;;;;;;5054755;28;20234;-83
2021/04/02 12:10:22;;;;;;;6.40;2.30;;;12.00;99.90;;;;;;5052021;28;20267;-83
2021/04/02 12:12:49;;;;;;;10.53;2.60;;;11.80;99.90;;;;;;5054066;28;20530;-81
2021/04/02 12:15:16;;;;;;;7.53;2.70;;;11.90;99.90;;;;;;5053682;28;20562;-84
2021/04/02 12:17:43;;;;;;;12.63;3.03;;;12.60;99.90;;;;;;5053460;28;20595;-81
2021/04/02 12:20:11;;;;;;;10.73;3.20;;;13.30;99.90;;;;;;5051835;28;20287;-85
2021/04/02 12:22:38;;;;;;;9.73;3.77;;;13.20;99.90;;;;;;5047229;28;20212;-82
2021/04/02 12:25:08;;;;;;;9.20;3.70;;;13.20;99.90;;;;;;5047936;28;20306;-82
2021/04/02 12:27:34;;;;;;;12.20;3.30;;;12.40;99.90;;;;;;5048884;28;20519;-84
2021/04/02 12:30:00;;;;;;;9.07;3.30;;;12.00;99.90;;;;;;5049338;28;20235;-82
2021/04/02 12:32:29;;;;;;;11.10;3.00;;;12.00;99.90;;;;;;5049148;28;20721;-84
2021/04/02 12:34:56;;;;;;;9.57;2.97;;;12.40;99.90;;;;;;5053250;28;20545;-83
2021/04/02 12:37:22;;;;;;;8.87;2.83;;;13.00;99.90;;;;;;5056267;28;20641;-83
2021/04/02 12:39:48;;;;;;;9.30;3.30;;;12.50;99.90;;;;;;5045178;28;20234;-83
2021/04/02 12:42:16;;;;;;;10.77;3.97;;;12.10;99.90;;;;;;5045439;28;20216;-84
2021/04/02 12:44:42;;;;;;;7.53;3.27;;;12.20;99.90;;;;;;5051070;28;20288;-80
2021/04/02 12:47:08;;;;;;;8.77;3.40;;;12.50;99.90;;;;;;5055990;28;20285;-81
2021/04/02 12:49:35;;;;;;;9.33;3.37;;;12.20;99.90;;;;;;5049739;28;20244;-82
2021/04/02 12:52:01;;;;;;;8.70;2.93;;;12.10;99.90;;;;;;5050951;28;20207;-82
2021/04/02 12:54:28;;;;;;;9.67;3.23;;;12.40;99.90;;;;;;5051158;28;20224;-82